sensor_id;sensor_type;location;lat;lon;timestamp;pressure;altitude;pressure_sealevel;temperature;humidity
74973;BME280;63529;56.320;43.990;2023-03-01T00:01:28;98158.22;;;-3.44;68.66
74973;BME280;63529;56.320;43.990;2023-03-01T00:03:56;98156.97;;;-3.41;68.82
74973;BME280;63529;56.320;43.990;2023-03-01T00:06:23;98163.78;;;-3.40;68.36
74973;BME280;63529;56.320;43.990;2023-03-01T00:08:49;98161.34;;;-3.35;68.56
74973;BME280;63529;56.320;43.990;2023-03-01T00:11:22;98166.16;;;-3.32;68.44
74973;BME280;63529;56.320;43.990;2023-03-01T00:13:50;98164.53;;;-3.33;68.24
74973;BME280;63529;56.320;43.990;2023-03-01T00:16:25;98164.13;;;-3.30;68.49
74973;BME280;63529;56.320;43.990;2023-03-01T00:18:53;98166.94;;;-3.32;68.29
74973;BME280;63529;56.320;43.990;2023-03-01T00:21:20;98160.13;;;-3.33;68.30
74973;BME280;63529;56.320;43.990;2023-03-01T00:23:48;98162.38;;;-3.36;67.90
74973;BME280;63529;56.320;43.990;2023-03-01T00:26:16;98155.97;;;-3.40;67.97
74973;BME280;63529;56.320;43.990;2023-03-01T00:28:42;98161.06;;;-3.45;67.82
74973;BME280;63529;56.320;43.990;2023-03-01T00:31:20;98152.44;;;-3.52;67.73
74973;BME280;63529;56.320;43.990;2023-03-01T00:33:46;98154.31;;;-3.60;67.58
74973;BME280;63529;56.320;43.990;2023-03-01T00:36:14;98160.38;;;-3.66;67.67
74973;BME280;63529;56.320;43.990;2023-03-01T00:38:42;98156.22;;;-3.73;67.80
74973;BME280;63529;56.320;43.990;2023-03-01T00:41:19;98157.44;;;-3.76;68.04
74973;BME280;63529;56.320;43.990;2023-03-01T00:43:45;98157.66;;;-3.77;68.23
74973;BME280;63529;56.320;43.990;2023-03-01T00:46:14;98154.06;;;-3.76;68.28
74973;BME280;63529;56.320;43.990;2023-03-01T00:48:41;98161.44;;;-3.73;67.96
74973;BME280;63529;56.320;43.990;2023-03-01T00:51:09;98161.22;;;-3.72;67.97
74973;BME280;63529;56.320;43.990;2023-03-01T00:53:36;98157.19;;;-3.68;67.87
74973;BME280;63529;56.320;43.990;2023-03-01T00:56:04;98148.56;;;-3.68;67.79
74973;BME280;63529;56.320;43.990;2023-03-01T00:58:30;98148.34;;;-3.67;67.62
74973;BME280;63529;56.320;43.990;2023-03-01T01:00:57;98153.72;;;-3.62;67.69
74973;BME280;63529;56.320;43.990;2023-03-01T01:03:23;98151.13;;;-3.62;67.25
74973;BME280;63529;56.320;43.990;2023-03-01T01:05:51;98148.31;;;-3.60;67.24
74973;BME280;63529;56.320;43.990;2023-03-01T01:08:18;98147.72;;;-3.62;67.14
74973;BME280;63529;56.320;43.990;2023-03-01T01:10:46;98147.50;;;-3.61;67.08
74973;BME280;63529;56.320;43.990;2023-03-01T01:13:12;98151.94;;;-3.61;66.91
74973;BME280;63529;56.320;43.990;2023-03-01T01:15:39;98143.53;;;-3.63;67.02
74973;BME280;63529;56.320;43.990;2023-03-01T01:18:05;98153.94;;;-3.63;66.87
74973;BME280;63529;56.320;43.990;2023-03-01T01:20:31;98153.94;;;-3.63;66.66
74973;BME280;63529;56.320;43.990;2023-03-01T01:22:58;98151.75;;;-3.66;66.54
74973;BME280;63529;56.320;43.990;2023-03-01T01:25:26;98154.97;;;-3.64;66.41
74973;BME280;63529;56.320;43.990;2023-03-01T01:27:53;98149.94;;;-3.66;66.33
74973;BME280;63529;56.320;43.990;2023-03-01T01:30:19;98154.34;;;-3.66;66.15
74973;BME280;63529;56.320;43.990;2023-03-01T01:32:45;98156.97;;;-3.66;66.21
74973;BME280;63529;56.320;43.990;2023-03-01T01:35:11;98148.00;;;-3.70;66.00
74973;BME280;63529;56.320;43.990;2023-03-01T01:37:37;98154.00;;;-3.70;65.91
74973;BME280;63529;56.320;43.990;2023-03-01T01:40:03;98161.59;;;-3.68;65.96
74973;BME280;63529;56.320;43.990;2023-03-01T01:42:30;98153.41;;;-3.72;65.90
74973;BME280;63529;56.320;43.990;2023-03-01T01:45:24;98161.22;;;-3.72;65.98
74973;BME280;63529;56.320;43.990;2023-03-01T01:47:53;98156.44;;;-3.75;65.60
74973;BME280;63529;56.320;43.990;2023-03-01T01:50:19;98156.66;;;-3.76;65.57
74973;BME280;63529;56.320;43.990;2023-03-01T01:52:48;98147.25;;;-3.77;65.69
74973;BME280;63529;56.320;43.990;2023-03-01T01:55:19;98166.88;;;-3.75;65.67
74973;BME280;63529;56.320;43.990;2023-03-01T01:57:52;98161.88;;;-3.76;65.81
74973;BME280;63529;56.320;43.990;2023-03-01T02:00:20;98160.06;;;-3.76;65.75
74973;BME280;63529;56.320;43.990;2023-03-01T02:02:49;98155.84;;;-3.77;65.54
74973;BME280;63529;56.320;43.990;2023-03-01T02:08:17;98162.66;;;-3.76;65.68
74973;BME280;63529;56.320;43.990;2023-03-01T02:10:44;98165.28;;;-3.76;65.56
74973;BME280;63529;56.320;43.990;2023-03-01T02:13:11;98161.06;;;-3.77;65.70
74973;BME280;63529;56.320;43.990;2023-03-01T02:15:39;98160.47;;;-3.79;65.67
74973;BME280;63529;56.320;43.990;2023-03-01T02:18:07;98156.09;;;-3.85;65.51
74973;BME280;63529;56.320;43.990;2023-03-01T02:23:00;98151.75;;;-3.91;65.28
74973;BME280;63529;56.320;43.990;2023-03-01T02:28:38;98167.78;;;-3.94;65.45
74973;BME280;63529;56.320;43.990;2023-03-01T02:31:07;98170.00;;;-3.98;65.19
74973;BME280;63529;56.320;43.990;2023-03-01T02:33:53;98169.25;;;-4.05;65.42
74973;BME280;63529;56.320;43.990;2023-03-01T02:36:24;98170.69;;;-4.09;65.40
74973;BME280;63529;56.320;43.990;2023-03-01T02:38:53;98164.06;;;-4.12;65.28
74973;BME280;63529;56.320;43.990;2023-03-01T02:41:22;98175.94;;;-4.16;65.32
74973;BME280;63529;56.320;43.990;2023-03-01T02:43:49;98171.53;;;-4.22;65.43
74973;BME280;63529;56.320;43.990;2023-03-01T02:46:24;98172.59;;;-4.29;65.02
74973;BME280;63529;56.320;43.990;2023-03-01T02:48:52;98184.84;;;-4.37;65.37
74973;BME280;63529;56.320;43.990;2023-03-01T02:51:22;98186.25;;;-4.41;65.41
74973;BME280;63529;56.320;43.990;2023-03-01T02:54:06;98190.47;;;-4.46;65.57
74973;BME280;63529;56.320;43.990;2023-03-01T02:56:34;98190.09;;;-4.50;65.74
74973;BME280;63529;56.320;43.990;2023-03-01T02:59:00;98186.09;;;-4.52;65.78
74973;BME280;63529;56.320;43.990;2023-03-01T03:01:28;98185.72;;;-4.56;65.80
74973;BME280;63529;56.320;43.990;2023-03-01T03:04:10;98185.09;;;-4.58;65.61
74973;BME280;63529;56.320;43.990;2023-03-01T03:06:37;98184.72;;;-4.61;65.85
74973;BME280;63529;56.320;43.990;2023-03-01T03:09:04;98177.31;;;-4.65;65.83
74973;BME280;63529;56.320;43.990;2023-03-01T03:11:30;98186.53;;;-4.62;65.99
74973;BME280;63529;56.320;43.990;2023-03-01T03:13:58;98186.72;;;-4.64;65.99
74973;BME280;63529;56.320;43.990;2023-03-01T03:16:24;98176.28;;;-4.64;66.10
74973;BME280;63529;56.320;43.990;2023-03-01T03:18:50;98184.72;;;-4.61;66.17
74973;BME280;63529;56.320;43.990;2023-03-01T03:21:16;98179.50;;;-4.61;66.35
74973;BME280;63529;56.320;43.990;2023-03-01T03:23:43;98184.50;;;-4.60;66.40
74973;BME280;63529;56.320;43.990;2023-03-01T03:26:09;98190.91;;;-4.56;66.34
74973;BME280;63529;56.320;43.990;2023-03-01T03:28:40;98189.47;;;-4.52;66.31
74973;BME280;63529;56.320;43.990;2023-03-01T03:31:07;98186.66;;;-4.50;66.52
74973;BME280;63529;56.320;43.990;2023-03-01T03:33:34;98188.44;;;-4.44;66.57
74973;BME280;63529;56.320;43.990;2023-03-01T03:35:59;98189.84;;;-4.42;66.42
74973;BME280;63529;56.320;43.990;2023-03-01T03:38:25;98186.03;;;-4.39;66.46
74973;BME280;63529;56.320;43.990;2023-03-01T03:41:01;98189.84;;;-4.35;66.22
74973;BME280;63529;56.320;43.990;2023-03-01T03:43:29;98188.81;;;-4.34;65.99
74973;BME280;63529;56.320;43.990;2023-03-01T03:45:56;98190.41;;;-4.33;66.13
74973;BME280;63529;56.320;43.990;2023-03-01T03:48:23;98190.41;;;-4.33;66.14
74973;BME280;63529;56.320;43.990;2023-03-01T03:50:51;98189.63;;;-4.33;65.99
74973;BME280;63529;56.320;43.990;2023-03-01T03:53:18;98183.63;;;-4.34;66.02
74973;BME280;63529;56.320;43.990;2023-03-01T03:55:44;98198.00;;;-4.31;65.98
74973;BME280;63529;56.320;43.990;2023-03-01T03:58:10;98191.22;;;-4.32;66.18
74973;BME280;63529;56.320;43.990;2023-03-01T04:00:42;98195.22;;;-4.30;66.08
74973;BME280;63529;56.320;43.990;2023-03-01T04:03:11;98194.22;;;-4.29;65.95
74973;BME280;63529;56.320;43.990;2023-03-01T04:05:39;98185.59;;;-4.29;66.00
74973;BME280;63529;56.320;43.990;2023-03-01T04:08:06;98195.59;;;-4.26;66.01
74973;BME280;63529;56.320;43.990;2023-03-01T04:10:44;98188.59;;;-4.26;65.83
74973;BME280;63529;56.320;43.990;2023-03-01T04:13:13;98196.19;;;-4.24;65.69
74973;BME280;63529;56.320;43.990;2023-03-01T04:15:39;98202.00;;;-4.22;65.53
74973;BME280;63529;56.320;43.990;2023-03-01T04:18:06;98197.38;;;-4.20;65.79
74973;BME280;63529;56.320;43.990;2023-03-01T04:20:34;98198.75;;;-4.18;65.44
74973;BME280;63529;56.320;43.990;2023-03-01T04:23:03;98205.16;;;-4.14;65.61
74973;BME280;63529;56.320;43.990;2023-03-01T04:25:52;98212.16;;;-4.07;65.66
74973;BME280;63529;56.320;43.990;2023-03-01T04:28:36;98206.31;;;-4.03;65.25
74973;BME280;63529;56.320;43.990;2023-03-01T04:31:10;98215.91;;;-3.97;65.25
74973;BME280;63529;56.320;43.990;2023-03-01T04:33:43;98210.06;;;-3.92;65.23
74973;BME280;63529;56.320;43.990;2023-03-01T04:36:10;98207.63;;;-3.87;65.11
74973;BME280;63529;56.320;43.990;2023-03-01T04:38:37;98211.00;;;-3.80;65.08
74973;BME280;63529;56.320;43.990;2023-03-01T04:41:09;98206.97;;;-3.76;64.91
74973;BME280;63529;56.320;43.990;2023-03-01T04:43:36;98210.56;;;-3.70;64.96
74973;BME280;63529;56.320;43.990;2023-03-01T04:46:12;98220.78;;;-3.69;64.78
74973;BME280;63529;56.320;43.990;2023-03-01T04:48:40;98226.56;;;-3.67;64.59
74973;BME280;63529;56.320;43.990;2023-03-01T04:51:07;98222.53;;;-3.63;64.62
74973;BME280;63529;56.320;43.990;2023-03-01T04:53:34;98228.50;;;-3.56;64.43
74973;BME280;63529;56.320;43.990;2023-03-01T04:56:04;98228.47;;;-3.49;64.49
74973;BME280;63529;56.320;43.990;2023-03-01T04:58:30;98221.16;;;-3.40;64.28
74973;BME280;63529;56.320;43.990;2023-03-01T05:00:56;98222.94;;;-3.34;64.25
74973;BME280;63529;56.320;43.990;2023-03-01T05:03:22;98236.53;;;-3.25;64.09
74973;BME280;63529;56.320;43.990;2023-03-01T05:05:50;98231.06;;;-3.17;63.93
74973;BME280;63529;56.320;43.990;2023-03-01T05:08:17;98228.38;;;-3.11;63.91
74973;BME280;63529;56.320;43.990;2023-03-01T05:10:49;98238.78;;;-3.04;63.71
74973;BME280;63529;56.320;43.990;2023-03-01T05:13:15;98232.31;;;-3.02;63.65
74973;BME280;63529;56.320;43.990;2023-03-01T05:16:06;98231.47;;;-2.95;63.66
74973;BME280;63529;56.320;43.990;2023-03-01T05:18:33;98228.78;;;-2.89;63.56
74973;BME280;63529;56.320;43.990;2023-03-01T05:21:11;98243.59;;;-2.83;63.38
74973;BME280;63529;56.320;43.990;2023-03-01T05:23:37;98226.28;;;-2.77;63.05
74973;BME280;63529;56.320;43.990;2023-03-01T05:26:05;98233.81;;;-2.69;62.81
74973;BME280;63529;56.320;43.990;2023-03-01T05:28:32;98238.91;;;-2.56;62.89
74973;BME280;63529;56.320;43.990;2023-03-01T05:30:58;98233.56;;;-2.42;62.77
74973;BME280;63529;56.320;43.990;2023-03-01T05:33:25;98240.59;;;-2.25;62.57
74973;BME280;63529;56.320;43.990;2023-03-01T05:35:51;98235.94;;;-2.04;62.31
74973;BME280;63529;56.320;43.990;2023-03-01T05:38:20;98234.09;;;-1.85;61.81
74973;BME280;63529;56.320;43.990;2023-03-01T05:40:48;98235.34;;;-1.58;61.63
74973;BME280;63529;56.320;43.990;2023-03-01T05:43:16;98239.50;;;-1.27;60.93
74973;BME280;63529;56.320;43.990;2023-03-01T05:45:42;98242.63;;;-0.95;60.50
74973;BME280;63529;56.320;43.990;2023-03-01T05:48:10;98250.97;;;-0.74;59.80
74973;BME280;63529;56.320;43.990;2023-03-01T05:50:39;98242.44;;;-0.58;59.58
74973;BME280;63529;56.320;43.990;2023-03-01T05:53:09;98256.53;;;-0.47;59.10
74973;BME280;63529;56.320;43.990;2023-03-01T05:55:36;98253.91;;;-0.47;58.67
74973;BME280;63529;56.320;43.990;2023-03-01T05:58:03;98260.19;;;-0.48;58.62
74973;BME280;63529;56.320;43.990;2023-03-01T06:00:30;98257.91;;;-0.45;58.47
74973;BME280;63529;56.320;43.990;2023-03-01T06:02:57;98253.34;;;-0.38;58.29
74973;BME280;63529;56.320;43.990;2023-03-01T06:05:23;98253.78;;;-0.17;58.39
74973;BME280;63529;56.320;43.990;2023-03-01T06:07:49;98264.50;;;-0.19;57.85
74973;BME280;63529;56.320;43.990;2023-03-01T06:10:16;98269.50;;;-0.29;57.89
74973;BME280;63529;56.320;43.990;2023-03-01T06:12:43;98272.25;;;-0.36;57.99
74973;BME280;63529;56.320;43.990;2023-03-01T06:15:10;98266.56;;;-0.44;58.09
74973;BME280;63529;56.320;43.990;2023-03-01T06:17:39;98267.81;;;-0.47;58.24
74973;BME280;63529;56.320;43.990;2023-03-01T06:20:15;98269.88;;;-0.49;58.47
74973;BME280;63529;56.320;43.990;2023-03-01T06:22:43;98270.09;;;-0.50;58.57
74973;BME280;63529;56.320;43.990;2023-03-01T06:25:09;98272.84;;;-0.57;58.39
74973;BME280;63529;56.320;43.990;2023-03-01T06:27:36;98268.94;;;-0.66;58.52
74973;BME280;63529;56.320;43.990;2023-03-01T06:30:02;98273.75;;;-0.75;58.57
74973;BME280;63529;56.320;43.990;2023-03-01T06:32:30;98271.22;;;-0.82;58.37
74973;BME280;63529;56.320;43.990;2023-03-01T06:34:56;98263.72;;;-0.90;58.48
74973;BME280;63529;56.320;43.990;2023-03-01T06:37:25;98265.31;;;-0.89;58.65
74973;BME280;63529;56.320;43.990;2023-03-01T06:39:51;98265.63;;;-0.85;58.57
74973;BME280;63529;56.320;43.990;2023-03-01T06:42:17;98263.50;;;-0.76;58.34
74973;BME280;63529;56.320;43.990;2023-03-01T06:44:44;98270.22;;;-0.69;58.38
74973;BME280;63529;56.320;43.990;2023-03-01T06:47:10;98268.75;;;-0.65;58.07
74973;BME280;63529;56.320;43.990;2023-03-01T06:49:36;98258.72;;;-0.56;57.98
74973;BME280;63529;56.320;43.990;2023-03-01T06:52:02;98267.47;;;-0.39;57.99
74973;BME280;63529;56.320;43.990;2023-03-01T06:54:28;98269.94;;;-0.20;57.72
74973;BME280;63529;56.320;43.990;2023-03-01T06:56:54;98261.81;;;-0.07;57.49
74973;BME280;63529;56.320;43.990;2023-03-01T06:59:21;98266.81;;;0.06;56.99
74973;BME280;63529;56.320;43.990;2023-03-01T07:01:47;98253.91;;;0.16;56.62
74973;BME280;63529;56.320;43.990;2023-03-01T07:04:31;98253.50;;;0.36;56.19
74973;BME280;63529;56.320;43.990;2023-03-01T07:06:57;98255.13;;;0.54;56.16
74973;BME280;63529;56.320;43.990;2023-03-01T07:09:23;98263.16;;;0.64;55.62
74973;BME280;63529;56.320;43.990;2023-03-01T07:11:49;98258.56;;;0.71;55.67
74973;BME280;63529;56.320;43.990;2023-03-01T07:14:16;98251.41;;;0.84;55.50
74973;BME280;63529;56.320;43.990;2023-03-01T07:16:42;98250.66;;;1.00;55.06
74973;BME280;63529;56.320;43.990;2023-03-01T07:19:08;98254.06;;;1.34;54.84
74973;BME280;63529;56.320;43.990;2023-03-01T07:21:34;98247.53;;;1.97;54.01
74973;BME280;63529;56.320;43.990;2023-03-01T07:24:00;98245.81;;;2.57;52.96
74973;BME280;63529;56.320;43.990;2023-03-01T07:26:25;98256.22;;;3.06;52.10
74973;BME280;63529;56.320;43.990;2023-03-01T07:28:51;98255.72;;;3.41;51.32
74973;BME280;63529;56.320;43.990;2023-03-01T07:31:17;98258.88;;;3.43;50.59
74973;BME280;63529;56.320;43.990;2023-03-01T07:33:44;98249.91;;;3.44;50.82
74973;BME280;63529;56.320;43.990;2023-03-01T07:36:10;98259.72;;;3.48;50.71
74973;BME280;63529;56.320;43.990;2023-03-01T07:38:36;98258.69;;;3.54;50.33
74973;BME280;63529;56.320;43.990;2023-03-01T07:41:03;98258.25;;;3.68;50.13
74973;BME280;63529;56.320;43.990;2023-03-01T07:43:29;98259.91;;;3.79;49.82
74973;BME280;63529;56.320;43.990;2023-03-01T07:46:00;98258.94;;;4.00;49.29
74973;BME280;63529;56.320;43.990;2023-03-01T07:48:26;98251.09;;;4.21;48.84
74973;BME280;63529;56.320;43.990;2023-03-01T07:50:52;98251.63;;;4.23;48.51
74973;BME280;63529;56.320;43.990;2023-03-01T07:53:18;98247.22;;;4.44;48.37
74973;BME280;63529;56.320;43.990;2023-03-01T07:55:45;98255.88;;;4.34;47.91
74973;BME280;63529;56.320;43.990;2023-03-01T07:58:14;98250.94;;;4.63;47.99
74973;BME280;63529;56.320;43.990;2023-03-01T08:00:41;98250.16;;;5.13;47.11
74973;BME280;63529;56.320;43.990;2023-03-01T08:03:07;98243.81;;;5.30;46.62
74973;BME280;63529;56.320;43.990;2023-03-01T08:05:33;98251.75;;;5.30;46.49
74973;BME280;63529;56.320;43.990;2023-03-01T08:07:59;98260.22;;;5.37;46.43
74973;BME280;63529;56.320;43.990;2023-03-01T08:10:25;98254.38;;;5.45;46.41
74973;BME280;63529;56.320;43.990;2023-03-01T08:12:52;98260.75;;;5.24;46.36
74973;BME280;63529;56.320;43.990;2023-03-01T08:15:18;98262.59;;;4.93;46.77
74973;BME280;63529;56.320;43.990;2023-03-01T08:17:44;98270.22;;;4.58;46.83
74973;BME280;63529;56.320;43.990;2023-03-01T08:20:15;98269.06;;;4.19;46.88
74973;BME280;63529;56.320;43.990;2023-03-01T08:22:42;98271.22;;;3.74;47.75
74973;BME280;63529;56.320;43.990;2023-03-01T08:25:08;98278.13;;;3.43;48.47
74973;BME280;63529;56.320;43.990;2023-03-01T08:27:34;98279.38;;;3.31;48.48
74973;BME280;63529;56.320;43.990;2023-03-01T08:30:00;98283.28;;;3.23;48.74
74973;BME280;63529;56.320;43.990;2023-03-01T08:32:26;98287.91;;;3.11;48.89
74973;BME280;63529;56.320;43.990;2023-03-01T08:34:54;98288.78;;;2.89;48.69
74973;BME280;63529;56.320;43.990;2023-03-01T08:37:20;98292.91;;;2.80;49.03
74973;BME280;63529;56.320;43.990;2023-03-01T08:39:46;98298.88;;;2.70;49.10
74973;BME280;63529;56.320;43.990;2023-03-01T08:42:12;98296.00;;;2.72;48.80
74973;BME280;63529;56.320;43.990;2023-03-01T08:44:38;98305.47;;;2.73;48.75
74973;BME280;63529;56.320;43.990;2023-03-01T08:47:04;98314.38;;;2.67;48.53
74973;BME280;63529;56.320;43.990;2023-03-01T08:49:30;98311.13;;;2.60;48.35
74973;BME280;63529;56.320;43.990;2023-03-01T08:51:58;98304.78;;;2.56;48.08
74973;BME280;63529;56.320;43.990;2023-03-01T08:54:23;98315.53;;;2.49;47.59
74973;BME280;63529;56.320;43.990;2023-03-01T08:56:50;98316.63;;;2.31;47.79
74973;BME280;63529;56.320;43.990;2023-03-01T08:59:16;98310.56;;;2.31;48.18
74973;BME280;63529;56.320;43.990;2023-03-01T09:01:43;98312.56;;;2.45;48.04
74973;BME280;63529;56.320;43.990;2023-03-01T09:04:10;98313.75;;;2.55;47.66
74973;BME280;63529;56.320;43.990;2023-03-01T09:06:36;98311.59;;;2.52;47.78
74973;BME280;63529;56.320;43.990;2023-03-01T09:09:04;98311.31;;;2.48;48.21
74973;BME280;63529;56.320;43.990;2023-03-01T09:11:30;98319.56;;;2.57;48.21
74973;BME280;63529;56.320;43.990;2023-03-01T09:13:56;98313.25;;;2.58;48.22
74973;BME280;63529;56.320;43.990;2023-03-01T09:16:23;98323.28;;;2.61;48.30
74973;BME280;63529;56.320;43.990;2023-03-01T09:18:53;98318.03;;;2.61;48.20
74973;BME280;63529;56.320;43.990;2023-03-01T09:21:21;98312.00;;;2.65;48.34
74973;BME280;63529;56.320;43.990;2023-03-01T09:23:48;98310.47;;;2.69;48.18
74973;BME280;63529;56.320;43.990;2023-03-01T09:26:19;98309.22;;;2.77;48.42
74973;BME280;63529;56.320;43.990;2023-03-01T09:28:47;98308.22;;;2.83;48.35
74973;BME280;63529;56.320;43.990;2023-03-01T09:31:15;98314.63;;;2.92;48.31
74973;BME280;63529;56.320;43.990;2023-03-01T09:33:42;98312.56;;;2.94;48.04
74973;BME280;63529;56.320;43.990;2023-03-01T09:36:15;98311.78;;;2.94;48.05
74973;BME280;63529;56.320;43.990;2023-03-01T09:38:42;98304.28;;;2.86;48.26
74973;BME280;63529;56.320;43.990;2023-03-01T09:44:21;98309.22;;;3.04;48.27
74973;BME280;63529;56.320;43.990;2023-03-01T09:46:48;98299.19;;;3.06;47.94
74973;BME280;63529;56.320;43.990;2023-03-01T09:49:29;98296.44;;;3.23;48.28
74973;BME280;63529;56.320;43.990;2023-03-01T09:54:49;98292.03;;;3.66;47.36
74973;BME280;63529;56.320;43.990;2023-03-01T09:57:24;98309.75;;;3.75;47.26
74973;BME280;63529;56.320;43.990;2023-03-01T10:00:38;98296.78;;;3.69;46.78
74973;BME280;63529;56.320;43.990;2023-03-01T10:03:31;98298.22;;;3.49;46.85
74973;BME280;63529;56.320;43.990;2023-03-01T10:06:13;98302.84;;;3.32;46.83
74973;BME280;63529;56.320;43.990;2023-03-01T10:09:00;98295.81;;;3.11;46.95
74973;BME280;63529;56.320;43.990;2023-03-01T10:11:35;98304.41;;;2.96;47.19
74973;BME280;63529;56.320;43.990;2023-03-01T10:14:34;98309.75;;;2.79;47.21
74973;BME280;63529;56.320;43.990;2023-03-01T10:17:28;98308.09;;;2.68;47.57
74973;BME280;63529;56.320;43.990;2023-03-01T10:20:14;98306.69;;;2.38;47.38
74973;BME280;63529;56.320;43.990;2023-03-01T10:22:42;98305.84;;;2.11;47.95
74973;BME280;63529;56.320;43.990;2023-03-01T10:25:14;98315.88;;;1.92;48.24
74973;BME280;63529;56.320;43.990;2023-03-01T10:27:53;98311.31;;;1.87;48.91
74973;BME280;63529;56.320;43.990;2023-03-01T10:30:34;98300.25;;;1.85;49.08
74973;BME280;63529;56.320;43.990;2023-03-01T10:33:13;98310.25;;;1.83;48.78
74973;BME280;63529;56.320;43.990;2023-03-01T10:35:41;98322.34;;;1.84;48.70
74973;BME280;63529;56.320;43.990;2023-03-01T10:38:12;98317.09;;;1.84;48.75
74973;BME280;63529;56.320;43.990;2023-03-01T10:41:04;98318.69;;;1.85;48.74
74973;BME280;63529;56.320;43.990;2023-03-01T10:43:47;98319.22;;;1.87;48.52
74973;BME280;63529;56.320;43.990;2023-03-01T10:51:44;98309.66;;;1.81;49.08
74973;BME280;63529;56.320;43.990;2023-03-01T10:54:20;98303.63;;;1.81;48.80
74973;BME280;63529;56.320;43.990;2023-03-01T10:56:52;98310.88;;;1.74;48.84
74973;BME280;63529;56.320;43.990;2023-03-01T10:59:22;98311.84;;;1.68;48.89
74973;BME280;63529;56.320;43.990;2023-03-01T11:04:27;98308.75;;;1.71;48.91
74973;BME280;63529;56.320;43.990;2023-03-01T11:06:59;98305.88;;;1.72;49.45
74973;BME280;63529;56.320;43.990;2023-03-01T11:09:31;98310.81;;;1.69;49.38
74973;BME280;63529;56.320;43.990;2023-03-01T11:12:04;98299.03;;;1.54;49.41
74973;BME280;63529;56.320;43.990;2023-03-01T11:14:36;98299.06;;;1.38;49.78
74973;BME280;63529;56.320;43.990;2023-03-01T11:17:11;98300.81;;;1.32;50.03
74973;BME280;63529;56.320;43.990;2023-03-01T11:19:37;98318.72;;;1.35;50.11
74973;BME280;63529;56.320;43.990;2023-03-01T11:22:20;98310.44;;;1.43;50.07
74973;BME280;63529;56.320;43.990;2023-03-01T11:24:50;98306.78;;;1.44;49.58
74973;BME280;63529;56.320;43.990;2023-03-01T11:27:24;98313.88;;;1.44;49.73
74973;BME280;63529;56.320;43.990;2023-03-01T11:32:25;98313.75;;;1.55;48.90
74973;BME280;63529;56.320;43.990;2023-03-01T11:35:14;98315.94;;;1.58;48.69
74973;BME280;63529;56.320;43.990;2023-03-01T11:40:41;98312.19;;;1.54;48.57
74973;BME280;63529;56.320;43.990;2023-03-01T11:50:54;98322.47;;;1.22;48.95
74973;BME280;63529;56.320;43.990;2023-03-01T12:07:00;98308.53;;;1.05;49.33
74973;BME280;63529;56.320;43.990;2023-03-01T12:29:02;98325.03;;;0.32;49.47
74973;BME280;63529;56.320;43.990;2023-03-01T12:34:44;98340.84;;;0.08;49.47
74973;BME280;63529;56.320;43.990;2023-03-01T12:43:21;98342.78;;;-0.22;50.29
74973;BME280;63529;56.320;43.990;2023-03-01T12:49:05;98323.75;;;-0.30;50.52
74973;BME280;63529;56.320;43.990;2023-03-01T12:51:34;98329.56;;;-0.28;50.36
74973;BME280;63529;56.320;43.990;2023-03-01T12:54:31;98328.44;;;-0.32;50.63
74973;BME280;63529;56.320;43.990;2023-03-01T12:57:11;98334.38;;;-0.24;50.74
74973;BME280;63529;56.320;43.990;2023-03-01T13:02:38;98335.25;;;-0.07;50.59
74973;BME280;63529;56.320;43.990;2023-03-01T13:05:34;98343.13;;;-0.07;50.52
74973;BME280;63529;56.320;43.990;2023-03-01T13:08:26;98348.16;;;-0.17;50.61
74973;BME280;63529;56.320;43.990;2023-03-01T13:10:58;98351.34;;;-0.27;50.45
74973;BME280;63529;56.320;43.990;2023-03-01T13:13:27;98346.69;;;-0.37;50.34
74973;BME280;63529;56.320;43.990;2023-03-01T13:16:22;98341.88;;;-0.40;50.81
74973;BME280;63529;56.320;43.990;2023-03-01T13:19:21;98350.19;;;-0.43;50.76
74973;BME280;63529;56.320;43.990;2023-03-01T13:21:49;98341.09;;;-0.52;50.57
74973;BME280;63529;56.320;43.990;2023-03-01T13:24:42;98347.53;;;-0.66;50.58
74973;BME280;63529;56.320;43.990;2023-03-01T13:29:55;98346.50;;;-0.89;50.80
74973;BME280;63529;56.320;43.990;2023-03-01T13:32:32;98340.78;;;-0.97;50.85
74973;BME280;63529;56.320;43.990;2023-03-01T13:34:58;98345.75;;;-1.07;50.90
74973;BME280;63529;56.320;43.990;2023-03-01T13:37:37;98351.25;;;-1.27;50.89
74973;BME280;63529;56.320;43.990;2023-03-01T13:46:25;98349.72;;;-1.83;52.28
74973;BME280;63529;56.320;43.990;2023-03-01T13:48:59;98356.03;;;-1.91;52.51
74973;BME280;63529;56.320;43.990;2023-03-01T13:51:30;98346.47;;;-1.97;52.83
74973;BME280;63529;56.320;43.990;2023-03-01T13:53:59;98344.63;;;-1.97;53.06
74973;BME280;63529;56.320;43.990;2023-03-01T13:56:33;98348.50;;;-1.99;53.08
74973;BME280;63529;56.320;43.990;2023-03-01T13:59:21;98346.91;;;-2.00;53.40
74973;BME280;63529;56.320;43.990;2023-03-01T14:01:58;98349.75;;;-2.02;53.41
74973;BME280;63529;56.320;43.990;2023-03-01T14:04:29;98344.13;;;-2.05;53.44
74973;BME280;63529;56.320;43.990;2023-03-01T14:07:19;98349.59;;;-2.07;53.75
74973;BME280;63529;56.320;43.990;2023-03-01T14:09:52;98341.13;;;-2.09;53.75
74973;BME280;63529;56.320;43.990;2023-03-01T14:20:21;98344.72;;;-2.22;54.24
74973;BME280;63529;56.320;43.990;2023-03-01T14:22:49;98342.75;;;-2.26;54.27
74973;BME280;63529;56.320;43.990;2023-03-01T14:27:51;98343.16;;;-2.29;54.57
74973;BME280;63529;56.320;43.990;2023-03-01T14:30:27;98348.81;;;-2.32;54.87
74973;BME280;63529;56.320;43.990;2023-03-01T14:32:57;98348.81;;;-2.32;54.98
74973;BME280;63529;56.320;43.990;2023-03-01T14:35:33;98349.25;;;-2.35;54.85
74973;BME280;63529;56.320;43.990;2023-03-01T14:38:00;98358.09;;;-2.36;55.18
74973;BME280;63529;56.320;43.990;2023-03-01T14:42:56;98354.34;;;-2.40;55.26
74973;BME280;63529;56.320;43.990;2023-03-01T14:45:28;98347.34;;;-2.47;55.20
74973;BME280;63529;56.320;43.990;2023-03-01T14:48:00;98346.59;;;-2.54;55.42
74973;BME280;63529;56.320;43.990;2023-03-01T14:50:29;98347.88;;;-2.63;55.57
74973;BME280;63529;56.320;43.990;2023-03-01T14:52:59;98359.16;;;-2.69;55.84
74973;BME280;63529;56.320;43.990;2023-03-01T14:55:33;98360.00;;;-2.75;55.63